This is the latest recevied weather packets stored in our database for station/object DH1NAI-6. If no packets are shown the sender has not sent any weather packets the latest 10 day(s).
| Time | Temp. | Humidity | Pressure | Rain* | Wind** | Luminosity | Snow |
|---|---|---|---|---|---|---|---|
| 1778354192 | 9.44° C | 94% | 1014.4 hPa | 0 mm | - | 0 W/m² | - |
| 1778353583 | 8.89° C | 93% | 1014.3 hPa | 0 mm | - | 0 W/m² | - |
| 1778352976 | 10° C | 91% | 1014.3 hPa | 0 mm | - | 0 W/m² | - |
| 1778352368 | 10.56° C | 89% | 1014.2 hPa | 0 mm | - | 0 W/m² | - |
| 1778351760 | 11.11° C | 87% | 1014 hPa | 0 mm | - | 2 W/m² | - |
| 1778351152 | 11.67° C | 85% | 1013.9 hPa | 0 mm | - | 3 W/m² | - |
| 1778350544 | 12.22° C | 84% | 1013.9 hPa | 0 mm | - | 5 W/m² | - |
| 1778349931 | 12.78° C | 82% | 1013.9 hPa | 0 mm | - | 6 W/m² | - |
| 1778349328 | 13.33° C | 81% | 1014 hPa | 0 mm | - | 8 W/m² | - |
| 1778348719 | 13.33° C | 78% | 1014 hPa | 0 mm | - | 10 W/m² | - |
| 1778348095 | 13.89° C | 78% | 1014 hPa | 0 mm | - | 11 W/m² | - |
| 1778347472 | 13.89° C | 77% | 1013.8 hPa | 0 mm | - | 13 W/m² | - |
| 1778346871 | 14.44° C | 76% | 1014 hPa | 0 mm | - | 14 W/m² | - |
| 1778346256 | 15° C | 74% | 1014.2 hPa | 0 mm | - | 35 W/m² | - |
| 1778345648 | 15° C | 74% | 1014.3 hPa | 0 mm | - | 23 W/m² | - |
| 1778345040 | 15.56° C | 73% | 1014.1 hPa | 0 mm | - | 55 W/m² | - |
| 1778344431 | 15.56° C | 73% | 1014.3 hPa | 0 mm | - | 57 W/m² | - |
| 1778343823 | 15.56° C | 72% | 1014.1 hPa | 0 mm | - | 62 W/m² | - |
| 1778343211 | 15.56° C | 71% | 1014.2 hPa | 0 mm | - | 70 W/m² | - |
| 1778342608 | 15.56° C | 72% | 1014.2 hPa | 0 mm | - | 81 W/m² | - |
| 1778341999 | 15.56° C | 72% | 1014.3 hPa | 0 mm | - | 33 W/m² | - |
| 1778341375 | 15.56° C | 71% | 1014.4 hPa | 0 mm | - | 93 W/m² | - |
| 1778340752 | 15.56° C | 72% | 1014.3 hPa | 0 mm | - | 97 W/m² | - |
| 1778340144 | 16.11° C | 70% | 1014.7 hPa | 0 mm | - | 113 W/m² | - |
| 1778339536 | 15° C | 73% | 1014.7 hPa | 0 mm | - | 53 W/m² | - |
* Rain latest hour (hover to see other rain measurements)
** Current wind speed in m/s (hover to see current wind gust speed)